Terminal Aerodrome Forecast
Issued by NWS

Home | Current Version | Previous Version | Text Only | Print | Product List | Glossary On
Versions: 1 2 3 4 5 6 7 8 9 10 11 12 13 14 15 16
912
FTUS46 KHNX 061605 AAA
TAFVIS
TAF AMD
KVIS 061605Z 0616/0712 VRB03KT 1/4SM FG OVC002
      TEMPO 0617/0618 1SM BR
     FM061800 VRB03KT 2SM BR SCT250
     FM061900 31007KT 5SM HZ SCT250
     FM070300 32004KT 1 1/2SM BR SCT250
     FM070800 VRB02KT 1/2SM FG BKN002=

USA.gov is the U.S. government's official web portal to all federal, state and local government web resources and services.